Terminal Aerodrome Forecast
Issued by NWS

Home | Current Version | Previous Version | Text Only | Print | Product List | Glossary On
Versions: 1 2 3 4 5 6 7 8 9 10 11 12 13 14 15 16 17 18
000
FTUS41 KBTV 240521
TAFSLK
TAF
KSLK 240521Z 2406/2506 23005KT P6SM VCSH SCT008 OVC020
      TEMPO 2406/2409 3SM BR BKN008
     FM240900 VRB03KT 6SM BR OVC020
      TEMPO 2409/2412 2SM BR BKN008
     FM241200 25007KT P6SM BKN120
     FM241500 29007KT P6SM SCT120
     FM250000 24005KT P6SM SCT150=

USA.gov is the U.S. government's official web portal to all federal, state and local government web resources and services.